KWST

Details ICAO KWST (WST)
Name Westerly State
Region United States
Timezone America/New_York (UTC-5.0)
Plans Departing 8
Arriving 6
Stats Elevation 81 ft / 25 m (AMSL)
Location 41.349679° -71.803368°
Runways 2
Magnetic Variation 14.083° W
Sunrise 2017-12-14 12:06:59 UTC / 2017-12-14 07:06:59 Local
Sunset 2017-12-14 21:19:48 UTC / 2017-12-14 16:19:48 Local
Advertisement - Login to hide

Runways

ID Width Length Bearing (true) Bearing (mag) Surface Threshold Offset Overrun Length
07 100 ft / 30 m 4,005 ft / 1,221 m 53.12° 67.20° Asphalt 0 ft / 0 m 0 ft / 0 m
14 75 ft / 23 m 3,957 ft / 1,206 m 130.20° 144.28° Asphalt 0 ft / 0 m 0 ft / 0 m
25 100 ft / 30 m 4,005 ft / 1,221 m 233.13° 247.21° Asphalt 0 ft / 0 m 0 ft / 0 m
32 75 ft / 23 m 3,957 ft / 1,206 m 310.21° 324.29° Asphalt 751 ft / 229 m 0 ft / 0 m

Map

Weather


0- 5 10 15 20 25 30 35+ Temperature / ° C

Clouds and Precipitation
Forecast for 2017-12-14 06:00 UTC. Updated an hour ago

Ground ~20,000 ft ~40,000 ft Winds

METAR

KWST 140353Z AUTO 25009G15KT 10SM CLR M03/M16 A2964 RMK AO2 SLP036 T10331156

TAF

Not found

Frequencies

Recorded 132.37 MHz ASOS
Approach 119.45 MHz PROVIDENCE APP/DEP
Unicom 123.00 MHz CTAF/UNICOM
Warning: Do not use this data for real-world aviation or navigation. No guarantee of current accuracy is given.